Time;durP1;ratioP1;P1;durP2;ratioP2;P2;SDS_P1;SDS_P2;PMS_P1;PMS_P2;Temp;Humidity;BMP_temperature;BMP_pressure;BME280_temperature;BME280_humidity;BME280_pressure;Samples;Min_cycle;Max_cycle;Signal;HPM_P1;HPM_P2
2023/08/17 00:01:47;;;;;;;209.77;66.33;;;;;;;;;;5074809;28;20425;-55
2023/08/17 00:04:13;;;;;;;195.97;64.27;;;;;;;;;;5074866;28;20448;-55
2023/08/17 00:06:39;;;;;;;195.13;62.10;;;;;;;;;;5075176;28;20392;-55
2023/08/17 00:09:06;;;;;;;220.60;66.23;;;;;;;;;;5074968;28;20408;-55
2023/08/17 00:11:32;;;;;;;237.50;70.17;;;;;;;;;;5074553;28;20420;-55
2023/08/17 00:13:58;;;;;;;207.73;65.77;;;;;;;;;;5074748;28;20419;-55
2023/08/17 00:16:24;;;;;;;205.20;64.77;;;;;;;;;;5074780;28;20453;-56
2023/08/17 00:18:50;;;;;;;204.53;64.77;;;;;;;;;;5074555;28;20427;-55
2023/08/17 00:21:16;;;;;;;203.17;64.33;;;;;;;;;;5074356;28;20939;-55
2023/08/17 00:23:42;;;;;;;202.97;63.37;;;;;;;;;;5074651;28;20459;-55
2023/08/17 00:26:08;;;;;;;202.10;64.00;;;;;;;;;;5074611;28;20408;-55
2023/08/17 00:28:35;;;;;;;202.00;63.37;;;;;;;;;;5074505;28;20555;-54
2023/08/17 00:31:00;;;;;;;202.30;62.87;;;;;;;;;;5074473;28;20415;-55
2023/08/17 00:33:26;;;;;;;196.20;63.50;;;;;;;;;;5074531;28;20435;-55
2023/08/17 00:35:52;;;;;;;194.57;61.57;;;;;;;;;;5074586;28;20414;-55
2023/08/17 00:38:18;;;;;;;195.27;63.47;;;;;;;;;;5074772;28;20411;-54
2023/08/17 00:40:44;;;;;;;191.90;59.80;;;;;;;;;;5074397;28;20414;-55
2023/08/17 00:43:10;;;;;;;193.67;61.97;;;;;;;;;;5074414;28;20458;-55
2023/08/17 00:45:36;;;;;;;197.27;65.40;;;;;;;;;;5074450;28;20403;-55
2023/08/17 00:48:04;;;;;;;194.77;61.47;;;;;;;;;;5074294;28;20436;-55
2023/08/17 00:50:31;;;;;;;193.93;61.40;;;;;;;;;;5073998;28;20509;-55
2023/08/17 00:52:57;;;;;;;194.43;61.07;;;;;;;;;;5074265;28;20925;-56
2023/08/17 00:55:23;;;;;;;202.57;67.57;;;;;;;;;;5071579;28;20766;-55
2023/08/17 00:57:49;;;;;;;210.00;64.87;;;;;;;;;;5074040;28;20438;-54
2023/08/17 01:00:15;;;;;;;316.50;133.20;;;;;;;;;;5073743;28;20899;-54
2023/08/17 01:02:42;;;;;;;223.93;68.00;;;;;;;;;;5074354;28;20427;-53
2023/08/17 01:05:08;;;;;;;257.30;91.43;;;;;;;;;;5072906;28;20813;-53
2023/08/17 01:07:34;;;;;;;255.70;94.40;;;;;;;;;;5073987;28;20773;-56
2023/08/17 01:10:00;;;;;;;208.43;69.70;;;;;;;;;;5072525;28;20565;-55
2023/08/17 01:12:30;;;;;;;315.63;134.80;;;;;;;;;;5073642;28;20430;-52
2023/08/17 01:15:10;;;;;;;535.57;254.23;;;;;;;;;;5081201;28;20442;-50
2023/08/17 01:17:40;;;;;;;372.10;103.30;;;;;;;;;;5073612;28;20494;-51
2023/08/17 01:20:09;;;;;;;258.90;101.27;;;;;;;;;;5073624;28;20493;-54
2023/08/17 01:22:36;;;;;;;241.70;68.97;;;;;;;;;;5073535;28;20426;-50
2023/08/17 01:25:02;;;;;;;254.30;94.97;;;;;;;;;;5072084;28;20468;-51
2023/08/17 01:27:33;;;;;;;262.30;94.97;;;;;;;;;;5073794;28;20460;-51
2023/08/17 01:29:59;;;;;;;317.00;77.40;;;;;;;;;;5073670;28;20407;-51
2023/08/17 01:32:30;;;;;;;343.87;91.47;;;;;;;;;;5073295;28;20918;-53
2023/08/17 01:35:04;;;;;;;212.13;64.20;;;;;;;;;;5073239;28;20503;-52
2023/08/17 01:37:32;;;;;;;208.40;62.23;;;;;;;;;;5073177;28;20419;-53
2023/08/17 01:39:59;;;;;;;204.87;61.40;;;;;;;;;;5072949;28;20466;-53
2023/08/17 01:42:26;;;;;;;200.47;63.10;;;;;;;;;;5073081;28;20435;-52
2023/08/17 01:44:52;;;;;;;200.07;63.47;;;;;;;;;;5073171;28;20468;-53
2023/08/17 01:47:22;;;;;;;198.30;62.43;;;;;;;;;;5073055;28;20411;-53
2023/08/17 01:49:49;;;;;;;208.00;68.97;;;;;;;;;;5072768;28;20723;-53
2023/08/17 01:52:15;;;;;;;197.90;60.80;;;;;;;;;;5072854;28;20508;-53
2023/08/17 01:54:41;;;;;;;198.73;61.27;;;;;;;;;;5073232;28;20899;-53
2023/08/17 01:57:07;;;;;;;195.67;59.70;;;;;;;;;;5072688;28;20419;-52
2023/08/17 01:59:33;;;;;;;199.30;61.77;;;;;;;;;;5072760;28;20506;-53
2023/08/17 02:01:58;;;;;;;198.07;60.80;;;;;;;;;;5072539;28;20442;-53
2023/08/17 02:04:25;;;;;;;197.87;60.40;;;;;;;;;;5072618;28;21007;-52
2023/08/17 02:06:51;;;;;;;197.57;60.60;;;;;;;;;;5072692;28;20414;-53
2023/08/17 02:09:17;;;;;;;197.97;60.47;;;;;;;;;;5072441;28;20414;-54
2023/08/17 02:11:43;;;;;;;199.10;62.07;;;;;;;;;;5072518;28;20440;-53
2023/08/17 02:14:09;;;;;;;199.47;61.30;;;;;;;;;;5072527;28;20439;-53
2023/08/17 02:16:35;;;;;;;199.20;62.23;;;;;;;;;;5072361;28;20411;-53
2023/08/17 02:19:01;;;;;;;197.83;61.87;;;;;;;;;;5072452;28;20418;-53
2023/08/17 02:21:27;;;;;;;199.33;62.67;;;;;;;;;;5071851;28;20800;-52
2023/08/17 02:23:53;;;;;;;198.50;62.43;;;;;;;;;;5072068;28;20462;-54
2023/08/17 02:26:19;;;;;;;204.90;60.83;;;;;;;;;;5072145;28;20499;-53
2023/08/17 02:28:45;;;;;;;196.57;60.87;;;;;;;;;;5072333;28;20891;-53
2023/08/17 02:31:11;;;;;;;197.53;62.07;;;;;;;;;;5071984;28;20512;-53
2023/08/17 02:33:37;;;;;;;204.43;65.73;;;;;;;;;;5072112;28;20979;-54
2023/08/17 02:36:03;;;;;;;199.27;60.73;;;;;;;;;;5072127;28;20772;-53
2023/08/17 02:38:29;;;;;;;199.87;62.47;;;;;;;;;;5071926;28;20498;-53
2023/08/17 02:40:55;;;;;;;197.97;61.00;;;;;;;;;;5071890;28;20445;-52
2023/08/17 02:43:21;;;;;;;197.17;60.50;;;;;;;;;;5072000;28;20455;-54
2023/08/17 02:45:47;;;;;;;199.13;60.67;;;;;;;;;;5072327;28;20402;-50
2023/08/17 02:48:13;;;;;;;205.03;61.80;;;;;;;;;;5072081;28;20621;-54
2023/08/17 02:50:39;;;;;;;206.07;64.33;;;;;;;;;;5071467;28;20417;-54
2023/08/17 02:53:05;;;;;;;206.07;61.83;;;;;;;;;;5071694;28;20989;-52
2023/08/17 02:55:31;;;;;;;206.83;63.93;;;;;;;;;;5071785;28;20404;-53
2023/08/17 02:57:57;;;;;;;209.33;66.07;;;;;;;;;;5071781;28;20418;-52
2023/08/17 03:00:23;;;;;;;202.77;60.63;;;;;;;;;;5071759;28;20415;-54
2023/08/17 03:02:49;;;;;;;205.67;63.10;;;;;;;;;;5071746;28;20439;-53
2023/08/17 03:05:15;;;;;;;205.30;61.57;;;;;;;;;;5071580;28;20549;-51
2023/08/17 03:07:41;;;;;;;205.50;62.33;;;;;;;;;;5072138;28;20414;-57
2023/08/17 03:10:07;;;;;;;204.30;60.87;;;;;;;;;;5071500;28;20502;-58
2023/08/17 03:12:33;;;;;;;206.10;63.53;;;;;;;;;;5071563;28;20422;-60
2023/08/17 03:14:59;;;;;;;206.93;65.77;;;;;;;;;;5071457;28;20413;-56
2023/08/17 03:17:25;;;;;;;231.83;68.27;;;;;;;;;;5071517;28;20415;-54
2023/08/17 03:19:51;;;;;;;230.10;66.07;;;;;;;;;;5071318;28;20421;-54
2023/08/17 03:22:17;;;;;;;227.67;63.53;;;;;;;;;;5071279;28;20440;-54
2023/08/17 03:24:43;;;;;;;225.07;62.07;;;;;;;;;;5071545;28;20472;-54
2023/08/17 03:27:09;;;;;;;229.23;66.93;;;;;;;;;;5071493;28;20899;-55
2023/08/17 03:29:35;;;;;;;223.37;60.77;;;;;;;;;;5071418;28;20903;-53
2023/08/17 03:32:01;;;;;;;225.67;63.63;;;;;;;;;;5071392;28;20900;-54
2023/08/17 03:34:27;;;;;;;228.67;64.10;;;;;;;;;;5074815;28;20753;-53
2023/08/17 03:36:52;;;;;;;230.90;67.20;;;;;;;;;;5075511;28;20494;-53
2023/08/17 03:39:18;;;;;;;226.80;63.23;;;;;;;;;;5075555;28;20419;-53
2023/08/17 03:41:44;;;;;;;227.63;65.03;;;;;;;;;;5075230;28;20513;-53
2023/08/17 03:44:10;;;;;;;229.83;67.03;;;;;;;;;;5075297;28;20456;-54
2023/08/17 03:46:36;;;;;;;230.60;64.97;;;;;;;;;;5075369;28;20508;-52
2023/08/17 03:49:02;;;;;;;228.97;62.33;;;;;;;;;;5075439;28;20766;-53
2023/08/17 03:51:28;;;;;;;229.47;62.80;;;;;;;;;;5074784;28;20521;-53
2023/08/17 03:53:54;;;;;;;229.53;65.30;;;;;;;;;;5075409;28;20409;-53
2023/08/17 03:56:20;;;;;;;229.57;61.83;;;;;;;;;;5075139;28;20416;-52
2023/08/17 03:58:46;;;;;;;231.63;66.00;;;;;;;;;;5075137;28;20768;-53
2023/08/17 04:01:13;;;;;;;229.90;63.67;;;;;;;;;;5074837;28;20445;-54
2023/08/17 04:03:39;;;;;;;230.73;63.13;;;;;;;;;;5066644;28;21041;-53
2023/08/17 04:06:10;;;;;;;231.63;64.10;;;;;;;;;;5074949;28;20415;-54
2023/08/17 04:08:37;;;;;;;231.73;64.13;;;;;;;;;;5074893;28;20403;-53
2023/08/17 04:11:03;;;;;;;218.93;63.03;;;;;;;;;;5074853;28;20402;-53
2023/08/17 04:13:29;;;;;;;212.80;63.90;;;;;;;;;;5074717;28;20520;-53
2023/08/17 04:15:55;;;;;;;211.17;60.70;;;;;;;;;;5074735;28;20961;-54
2023/08/17 04:18:21;;;;;;;213.70;65.17;;;;;;;;;;5074565;28;20427;-53
2023/08/17 04:20:47;;;;;;;210.13;61.97;;;;;;;;;;5074576;28;20426;-54
2023/08/17 04:23:13;;;;;;;208.97;60.27;;;;;;;;;;5074626;28;20512;-52
2023/08/17 04:25:39;;;;;;;209.53;61.63;;;;;;;;;;5074539;28;20446;-53
2023/08/17 04:28:05;;;;;;;215.07;67.53;;;;;;;;;;5074645;28;20441;-53
2023/08/17 04:30:31;;;;;;;211.47;66.10;;;;;;;;;;5074399;28;20435;-53
2023/08/17 04:32:57;;;;;;;214.83;67.47;;;;;;;;;;5072929;28;20512;-53
2023/08/17 04:35:23;;;;;;;211.37;62.37;;;;;;;;;;5074744;28;20996;-53
2023/08/17 04:37:49;;;;;;;210.67;63.17;;;;;;;;;;5074707;28;20884;-54
2023/08/17 04:40:15;;;;;;;209.70;62.20;;;;;;;;;;5074228;28;20403;-54
2023/08/17 04:42:41;;;;;;;208.30;60.60;;;;;;;;;;5074543;28;20508;-53
2023/08/17 04:45:08;;;;;;;208.77;61.20;;;;;;;;;;5074302;28;20457;-53
2023/08/17 04:47:34;;;;;;;212.60;64.70;;;;;;;;;;5074381;28;20402;-53
2023/08/17 04:50:00;;;;;;;209.73;64.07;;;;;;;;;;5074118;28;20505;-53
2023/08/17 04:52:25;;;;;;;208.40;60.07;;;;;;;;;;5074259;28;20931;-54
2023/08/17 04:54:52;;;;;;;211.13;64.80;;;;;;;;;;5074313;28;20791;-53
2023/08/17 04:57:18;;;;;;;212.53;64.23;;;;;;;;;;5074792;28;20416;-52
2023/08/17 04:59:44;;;;;;;213.97;65.23;;;;;;;;;;5074050;28;20402;-53
2023/08/17 05:02:10;;;;;;;213.93;69.13;;;;;;;;;;5074093;28;20424;-54
2023/08/17 05:04:36;;;;;;;210.83;63.60;;;;;;;;;;5074274;28;20844;-54
2023/08/17 05:07:02;;;;;;;212.63;65.63;;;;;;;;;;5074126;28;20807;-53
2023/08/17 05:09:28;;;;;;;218.73;60.93;;;;;;;;;;5074051;28;20394;-54
2023/08/17 05:11:54;;;;;;;219.20;61.50;;;;;;;;;;5073743;28;20782;-53
2023/08/17 05:14:20;;;;;;;219.47;63.17;;;;;;;;;;5073907;28;20425;-52
2023/08/17 05:16:46;;;;;;;219.10;62.93;;;;;;;;;;5074341;28;20406;-53
2023/08/17 05:19:12;;;;;;;214.13;59.37;;;;;;;;;;5073788;28;20407;-52
2023/08/17 05:21:38;;;;;;;219.37;65.83;;;;;;;;;;5073563;28;20907;-54
2023/08/17 05:24:04;;;;;;;218.87;63.07;;;;;;;;;;5073662;28;20449;-53
2023/08/17 05:26:30;;;;;;;220.97;64.70;;;;;;;;;;5073966;28;20825;-53
2023/08/17 05:28:56;;;;;;;221.07;65.90;;;;;;;;;;5073761;28;20502;-53
2023/08/17 05:31:22;;;;;;;222.63;70.03;;;;;;;;;;5073286;28;20521;-53
2023/08/17 05:33:48;;;;;;;217.83;61.80;;;;;;;;;;5073723;28;20415;-53
2023/08/17 05:36:14;;;;;;;217.07;61.90;;;;;;;;;;5073462;28;20884;-53
2023/08/17 05:38:40;;;;;;;216.97;61.80;;;;;;;;;;5073414;28;20937;-53
2023/08/17 05:41:06;;;;;;;215.27;60.20;;;;;;;;;;5073098;28;20835;-54
2023/08/17 05:43:32;;;;;;;217.47;63.00;;;;;;;;;;5073269;28;20450;-54
2023/08/17 05:46:02;;;;;;;226.63;67.10;;;;;;;;;;5072051;28;20828;-53
2023/08/17 05:48:28;;;;;;;214.33;64.20;;;;;;;;;;5064191;28;20432;-53
2023/08/17 05:50:56;;;;;;;210.47;62.03;;;;;;;;;;5060417;28;20442;-53
2023/08/17 05:53:22;;;;;;;207.63;60.97;;;;;;;;;;5072755;28;20466;-52
2023/08/17 05:55:48;;;;;;;204.67;59.20;;;;;;;;;;5071513;28;20418;-53
2023/08/17 05:58:14;;;;;;;208.37;62.80;;;;;;;;;;5076129;28;20413;-54
2023/08/17 06:00:40;;;;;;;209.90;63.97;;;;;;;;;;5071542;28;20965;-54
2023/08/17 06:03:06;;;;;;;210.13;62.67;;;;;;;;;;5071136;28;20434;-55
2023/08/17 06:05:32;;;;;;;211.97;63.83;;;;;;;;;;5071016;28;20910;-55
2023/08/17 06:07:58;;;;;;;210.63;62.80;;;;;;;;;;5071563;28;20413;-55
2023/08/17 06:10:27;;;;;;;207.67;60.70;;;;;;;;;;5071206;28;20421;-59
2023/08/17 06:12:57;;;;;;;206.87;60.93;;;;;;;;;;5072566;28;20454;-54
2023/08/17 06:15:23;;;;;;;207.83;61.60;;;;;;;;;;5072240;28;20406;-54
2023/08/17 06:17:52;;;;;;;206.27;61.10;;;;;;;;;;5072556;28;20411;-55
2023/08/17 06:20:18;;;;;;;208.70;63.57;;;;;;;;;;5069376;28;20433;-53
2023/08/17 06:22:45;;;;;;;207.97;62.20;;;;;;;;;;5072238;28;20435;-54
2023/08/17 06:25:11;;;;;;;206.27;61.67;;;;;;;;;;5072180;28;20461;-53
2023/08/17 06:27:37;;;;;;;205.50;60.83;;;;;;;;;;5072352;28;20434;-55
2023/08/17 06:30:03;;;;;;;206.87;61.33;;;;;;;;;;5072035;28;20419;-54
2023/08/17 06:32:30;;;;;;;205.40;59.70;;;;;;;;;;5072050;28;20436;-55
2023/08/17 06:34:57;;;;;;;209.17;61.77;;;;;;;;;;5072248;28;20434;-55
2023/08/17 06:37:23;;;;;;;208.00;61.27;;;;;;;;;;5072007;28;20417;-54
2023/08/17 06:39:49;;;;;;;216.37;68.20;;;;;;;;;;5071883;28;20410;-53
2023/08/17 06:42:15;;;;;;;212.07;67.30;;;;;;;;;;5071926;28;20546;-53
2023/08/17 06:44:40;;;;;;;206.20;60.90;;;;;;;;;;5072842;28;20954;-53
2023/08/17 06:47:06;;;;;;;207.67;60.30;;;;;;;;;;5076544;28;20493;-52
2023/08/17 06:49:32;;;;;;;217.33;64.73;;;;;;;;;;5071852;28;20463;-53
2023/08/17 06:51:58;;;;;;;216.40;64.57;;;;;;;;;;5071584;28;20448;-53
2023/08/17 06:54:24;;;;;;;212.87;61.40;;;;;;;;;;5071800;28;20411;-54
2023/08/17 06:56:50;;;;;;;214.60;62.20;;;;;;;;;;5071888;28;20409;-55
2023/08/17 06:59:16;;;;;;;215.00;62.50;;;;;;;;;;5071713;28;20410;-54
2023/08/17 07:01:42;;;;;;;217.17;63.30;;;;;;;;;;5071471;28;20433;-55
2023/08/17 07:04:08;;;;;;;216.97;64.27;;;;;;;;;;5071628;28;20466;-55
2023/08/17 07:06:35;;;;;;;204.90;60.47;;;;;;;;;;5071743;28;20422;-54
2023/08/17 07:09:03;;;;;;;206.43;60.87;;;;;;;;;;5070938;28;20418;-52
2023/08/17 07:11:29;;;;;;;209.23;63.67;;;;;;;;;;5071262;28;20439;-53
2023/08/17 07:13:55;;;;;;;205.67;60.57;;;;;;;;;;5071692;28;20439;-53
2023/08/17 07:16:21;;;;;;;205.57;60.50;;;;;;;;;;5071502;28;20429;-53
2023/08/17 07:18:47;;;;;;;207.77;62.83;;;;;;;;;;5070282;28;20467;-53
2023/08/17 07:21:13;;;;;;;205.47;60.10;;;;;;;;;;5071434;28;20439;-54
2023/08/17 07:23:39;;;;;;;206.93;60.40;;;;;;;;;;5071629;28;20556;-54
2023/08/17 07:26:05;;;;;;;205.47;60.00;;;;;;;;;;5071220;28;20536;-53
2023/08/17 07:28:31;;;;;;;208.57;62.87;;;;;;;;;;5069178;28;20465;-55
2023/08/17 07:30:57;;;;;;;208.63;61.53;;;;;;;;;;5066812;28;20822;-55
2023/08/17 07:33:23;;;;;;;207.67;63.73;;;;;;;;;;5071502;28;20476;-55
2023/08/17 07:35:49;;;;;;;206.60;61.33;;;;;;;;;;5071544;28;20896;-55
2023/08/17 07:38:15;;;;;;;205.70;60.10;;;;;;;;;;5071248;28;20425;-54
2023/08/17 07:40:42;;;;;;;208.50;62.87;;;;;;;;;;5071366;28;20771;-54
2023/08/17 07:43:08;;;;;;;209.87;62.47;;;;;;;;;;5070995;28;20497;-55
2023/08/17 07:45:34;;;;;;;207.07;60.47;;;;;;;;;;5071141;28;20416;-55
2023/08/17 07:48:00;;;;;;;209.20;63.83;;;;;;;;;;5071414;28;20402;-55
2023/08/17 07:50:26;;;;;;;209.03;64.33;;;;;;;;;;5070850;28;20518;-55
2023/08/17 07:52:52;;;;;;;204.57;60.77;;;;;;;;;;5071288;28;20508;-54
2023/08/17 07:55:18;;;;;;;206.80;62.33;;;;;;;;;;5071185;28;20975;-55
2023/08/17 07:57:44;;;;;;;208.27;64.17;;;;;;;;;;5071014;28;20928;-53
2023/08/17 08:00:11;;;;;;;207.93;63.07;;;;;;;;;;5070968;28;20399;-53
2023/08/17 08:02:37;;;;;;;207.00;61.20;;;;;;;;;;5070996;28;20449;-54
2023/08/17 08:05:03;;;;;;;287.77;116.70;;;;;;;;;;5070994;28;20462;-52
2023/08/17 08:07:29;;;;;;;206.00;61.23;;;;;;;;;;5071073;28;20941;-55
2023/08/17 08:09:55;;;;;;;214.57;70.57;;;;;;;;;;5070816;28;20399;-55
2023/08/17 08:12:20;;;;;;;207.13;62.10;;;;;;;;;;5068321;28;20433;-54
2023/08/17 08:14:48;;;;;;;208.70;62.67;;;;;;;;;;5071016;28;20483;-55
2023/08/17 08:17:14;;;;;;;208.77;62.50;;;;;;;;;;5070968;28;20408;-54
2023/08/17 08:19:40;;;;;;;204.73;59.73;;;;;;;;;;5072537;28;20420;-54
2023/08/17 08:22:06;;;;;;;207.97;63.93;;;;;;;;;;5074766;28;20820;-55
2023/08/17 08:24:33;;;;;;;216.87;70.57;;;;;;;;;;5073976;28;20815;-55
2023/08/17 08:26:59;;;;;;;208.00;62.60;;;;;;;;;;5074627;28;20411;-54
2023/08/17 08:29:25;;;;;;;207.17;62.03;;;;;;;;;;5074543;28;20443;-55
2023/08/17 08:31:51;;;;;;;205.43;60.33;;;;;;;;;;5074541;28;20470;-56
2023/08/17 08:34:17;;;;;;;209.83;64.40;;;;;;;;;;5074508;28;20422;-55
2023/08/17 08:36:43;;;;;;;210.70;66.23;;;;;;;;;;5074385;28;20415;-54
2023/08/17 08:39:10;;;;;;;209.23;63.57;;;;;;;;;;5074399;28;20489;-55
2023/08/17 08:41:37;;;;;;;205.87;60.53;;;;;;;;;;5074020;28;20424;-55
2023/08/17 08:44:03;;;;;;;210.87;67.53;;;;;;;;;;5074149;28;20499;-55
2023/08/17 08:46:32;;;;;;;208.33;62.47;;;;;;;;;;5074060;28;20435;-53
2023/08/17 08:48:58;;;;;;;206.37;61.03;;;;;;;;;;5074264;28;20451;-53
2023/08/17 08:51:28;;;;;;;212.00;68.70;;;;;;;;;;5072563;28;20788;-54
2023/08/17 08:54:02;;;;;;;206.80;61.67;;;;;;;;;;5074337;28;20908;-55
2023/08/17 08:56:28;;;;;;;209.10;63.20;;;;;;;;;;5070534;28;20505;-55
2023/08/17 08:58:54;;;;;;;208.17;62.27;;;;;;;;;;5063327;28;20959;-55
2023/08/17 09:01:20;;;;;;;216.33;69.10;;;;;;;;;;5053076;28;20457;-53
2023/08/17 09:03:47;;;;;;;207.73;63.03;;;;;;;;;;5052027;28;20542;-55
2023/08/17 09:06:14;;;;;;;207.67;61.70;;;;;;;;;;5054131;28;20409;-55
2023/08/17 09:08:40;;;;;;;211.07;64.30;;;;;;;;;;5053562;28;20539;-54
2023/08/17 09:11:06;;;;;;;209.50;63.60;;;;;;;;;;5052894;28;20932;-53
2023/08/17 09:13:32;;;;;;;210.70;66.07;;;;;;;;;;5053992;28;20723;-55
2023/08/17 09:16:01;;;;;;;207.80;63.67;;;;;;;;;;5053799;28;20890;-55
2023/08/17 09:18:27;;;;;;;207.23;62.77;;;;;;;;;;5053672;28;20492;-54
2023/08/17 09:20:53;;;;;;;206.40;62.47;;;;;;;;;;5053718;28;20431;-55
2023/08/17 09:23:20;;;;;;;207.87;65.57;;;;;;;;;;5053766;28;20433;-55
2023/08/17 09:25:46;;;;;;;205.27;62.60;;;;;;;;;;5053302;28;20393;-55
2023/08/17 09:28:14;;;;;;;203.97;60.80;;;;;;;;;;5053793;28;20408;-55
2023/08/17 09:30:51;;;;;;;208.53;64.67;;;;;;;;;;5052246;28;20443;-54
2023/08/17 09:33:17;;;;;;;207.23;63.33;;;;;;;;;;5053722;28;20400;-55
2023/08/17 09:35:43;;;;;;;207.20;63.50;;;;;;;;;;5053443;28;20413;-54
2023/08/17 09:38:09;;;;;;;206.83;63.37;;;;;;;;;;5053543;28;20786;-54
2023/08/17 09:40:35;;;;;;;204.10;61.03;;;;;;;;;;5053259;28;20756;-55
2023/08/17 09:43:02;;;;;;;209.97;68.67;;;;;;;;;;5053362;28;20417;-55
2023/08/17 09:45:29;;;;;;;208.87;63.97;;;;;;;;;;5053194;28;20513;-56
2023/08/17 09:47:55;;;;;;;209.20;65.07;;;;;;;;;;5053345;28;20424;-56
2023/08/17 09:50:25;;;;;;;204.17;60.10;;;;;;;;;;5052946;28;20895;-55
2023/08/17 09:52:54;;;;;;;207.10;64.30;;;;;;;;;;5092087;28;20425;-55
2023/08/17 09:55:21;;;;;;;208.93;67.10;;;;;;;;;;5093372;28;20482;-55
2023/08/17 09:57:48;;;;;;;211.43;67.10;;;;;;;;;;5093085;28;20407;-56
2023/08/17 10:00:14;;;;;;;208.80;63.80;;;;;;;;;;5091429;28;20434;-55
2023/08/17 10:02:40;;;;;;;208.97;63.07;;;;;;;;;;5072728;28;20805;-56
2023/08/17 10:05:08;;;;;;;206.00;61.40;;;;;;;;;;5072926;28;20882;-56
2023/08/17 10:07:35;;;;;;;206.53;64.47;;;;;;;;;;5072875;28;20432;-54
2023/08/17 10:10:03;;;;;;;262.47;80.90;;;;;;;;;;5072581;28;20488;-55
2023/08/17 10:12:31;;;;;;;212.80;65.17;;;;;;;;;;5072807;28;20923;-55
2023/08/17 10:15:04;;;;;;;294.70;95.80;;;;;;;;;;5072724;28;20436;-55
2023/08/17 10:17:32;;;;;;;211.03;65.30;;;;;;;;;;5072696;28;20495;-55
2023/08/17 10:19:59;;;;;;;211.20;65.80;;;;;;;;;;5071174;28;20405;-56
2023/08/17 10:22:33;;;;;;;209.67;64.77;;;;;;;;;;5072572;28;20520;-54
2023/08/17 10:25:01;;;;;;;208.87;63.10;;;;;;;;;;5072460;28;20453;-55
2023/08/17 10:27:27;;;;;;;210.83;65.30;;;;;;;;;;5072613;28;20920;-55
2023/08/17 10:29:53;;;;;;;216.07;69.03;;;;;;;;;;5072258;28;20429;-55
2023/08/17 10:32:22;;;;;;;216.03;72.97;;;;;;;;;;5088133;28;20435;-55
2023/08/17 10:34:48;;;;;;;209.97;64.27;;;;;;;;;;5092575;28;20465;-53
2023/08/17 10:37:15;;;;;;;212.13;67.17;;;;;;;;;;5092444;28;20403;-54
2023/08/17 10:39:47;;;;;;;211.53;65.27;;;;;;;;;;5092342;28;20485;-55
2023/08/17 10:42:13;;;;;;;211.73;66.83;;;;;;;;;;5092352;28;20434;-54
2023/08/17 10:44:46;;;;;;;210.20;65.43;;;;;;;;;;5092409;28;20826;-54
2023/08/17 10:47:21;;;;;;;211.73;66.37;;;;;;;;;;5092415;28;20409;-55
2023/08/17 10:49:51;;;;;;;216.77;69.67;;;;;;;;;;5092032;28;20598;-55
2023/08/17 10:52:25;;;;;;;210.70;63.83;;;;;;;;;;5077453;28;20420;-55
2023/08/17 10:54:51;;;;;;;210.83;65.00;;;;;;;;;;5072077;28;20885;-55
2023/08/17 10:57:30;;;;;;;212.07;64.37;;;;;;;;;;5072729;28;20912;-55
2023/08/17 11:00:08;;;;;;;212.67;65.63;;;;;;;;;;5071766;28;20397;-55
2023/08/17 11:02:34;;;;;;;211.73;65.27;;;;;;;;;;5071904;28;20453;-56
2023/08/17 11:05:04;;;;;;;212.13;65.87;;;;;;;;;;5071826;28;20984;-56
2023/08/17 11:07:39;;;;;;;211.83;65.47;;;;;;;;;;5071988;28;20397;-55
2023/08/17 11:10:32;;;;;;;213.53;66.17;;;;;;;;;;5071701;28;20516;-54
2023/08/17 11:13:01;;;;;;;213.77;65.73;;;;;;;;;;5070699;28;20772;-54
2023/08/17 11:15:42;;;;;;;210.43;63.23;;;;;;;;;;5071725;28;20489;-55
2023/08/17 11:18:08;;;;;;;214.27;68.23;;;;;;;;;;5071907;28;20408;-56
2023/08/17 11:20:34;;;;;;;327.07;93.13;;;;;;;;;;5071541;28;20423;-56
2023/08/17 11:23:00;;;;;;;371.03;98.90;;;;;;;;;;5072040;28;20803;-55
2023/08/17 11:25:27;;;;;;;218.27;70.60;;;;;;;;;;5071659;28;20463;-56
2023/08/17 11:27:53;;;;;;;214.10;65.60;;;;;;;;;;5071739;28;20408;-54
2023/08/17 11:30:20;;;;;;;213.37;65.00;;;;;;;;;;5071460;28;20449;-54
2023/08/17 11:32:46;;;;;;;217.23;69.73;;;;;;;;;;5071564;28;20457;-56
2023/08/17 11:35:12;;;;;;;215.07;68.70;;;;;;;;;;5071600;28;20452;-55
2023/08/17 11:37:38;;;;;;;217.17;70.57;;;;;;;;;;5071362;28;20404;-55
2023/08/17 11:40:04;;;;;;;215.53;67.53;;;;;;;;;;5071469;28;20400;-55
2023/08/17 11:42:30;;;;;;;214.70;64.33;;;;;;;;;;5071420;28;20532;-54
2023/08/17 11:44:56;;;;;;;214.30;62.47;;;;;;;;;;5071475;28;20613;-56
2023/08/17 11:47:22;;;;;;;213.17;65.40;;;;;;;;;;5071530;28;20428;-56
2023/08/17 11:49:49;;;;;;;217.20;66.93;;;;;;;;;;5071271;28;20388;-56
2023/08/17 11:52:15;;;;;;;214.13;67.27;;;;;;;;;;5085769;28;20844;-56
2023/08/17 11:54:41;;;;;;;272.43;74.87;;;;;;;;;;5093520;28;20403;-55
2023/08/17 11:57:07;;;;;;;261.37;76.67;;;;;;;;;;5095859;28;20403;-55
2023/08/17 11:59:34;;;;;;;256.37;75.60;;;;;;;;;;5095591;28;20398;-54
2023/08/17 12:02:01;;;;;;;251.87;73.23;;;;;;;;;;5094680;28;20415;-56
2023/08/17 12:04:27;;;;;;;247.30;75.13;;;;;;;;;;5094059;28;20579;-56
2023/08/17 12:06:53;;;;;;;241.27;70.67;;;;;;;;;;5095491;28;20910;-56
2023/08/17 12:09:19;;;;;;;240.37;71.50;;;;;;;;;;5095343;28;20418;-56
2023/08/17 12:11:46;;;;;;;241.30;73.07;;;;;;;;;;5095160;28;20419;-55
2023/08/17 12:14:12;;;;;;;241.63;74.77;;;;;;;;;;5095425;28;20895;-56
2023/08/17 12:16:48;;;;;;;237.67;70.57;;;;;;;;;;5095325;28;20838;-56
2023/08/17 12:19:14;;;;;;;236.37;67.53;;;;;;;;;;5095328;28;20437;-56
2023/08/17 12:21:43;;;;;;;236.20;70.23;;;;;;;;;;5069386;28;20439;-56
2023/08/17 12:24:14;;;;;;;231.17;68.63;;;;;;;;;;5072126;28;20456;-56
2023/08/17 12:26:44;;;;;;;231.13;68.60;;;;;;;;;;5074834;28;20818;-56
2023/08/17 12:29:10;;;;;;;233.23;71.43;;;;;;;;;;5073442;28;20824;-56
2023/08/17 12:31:36;;;;;;;236.63;74.90;;;;;;;;;;5074439;28;20518;-54
2023/08/17 12:34:03;;;;;;;233.63;66.93;;;;;;;;;;5074514;28;20444;-55
2023/08/17 12:36:29;;;;;;;234.07;67.87;;;;;;;;;;5075262;28;20495;-51
2023/08/17 12:38:55;;;;;;;235.80;72.27;;;;;;;;;;5074852;28;20413;-51
2023/08/17 12:41:21;;;;;;;234.50;72.17;;;;;;;;;;5074259;28;20838;-50
2023/08/17 12:43:47;;;;;;;231.13;65.57;;;;;;;;;;5074385;28;20458;-52
2023/08/17 12:46:13;;;;;;;242.10;67.10;;;;;;;;;;5074365;28;20490;-54
2023/08/17 12:48:39;;;;;;;270.40;76.73;;;;;;;;;;5074847;28;20815;-51
2023/08/17 12:51:05;;;;;;;265.07;71.60;;;;;;;;;;5078627;28;20470;-52
2023/08/17 12:53:31;;;;;;;264.07;75.87;;;;;;;;;;5095206;28;20490;-52
2023/08/17 12:55:58;;;;;;;257.43;70.03;;;;;;;;;;5094526;28;20429;-55
2023/08/17 12:58:24;;;;;;;253.43;69.23;;;;;;;;;;5094805;28;20469;-54
2023/08/17 13:00:50;;;;;;;254.27;70.67;;;;;;;;;;5094211;28;20487;-54
2023/08/17 13:03:17;;;;;;;253.63;74.03;;;;;;;;;;5094336;28;20392;-53
2023/08/17 13:05:43;;;;;;;248.03;70.23;;;;;;;;;;5092940;28;20904;-53
2023/08/17 13:08:10;;;;;;;244.80;69.33;;;;;;;;;;5094385;28;20899;-53
2023/08/17 13:10:36;;;;;;;240.60;67.73;;;;;;;;;;5094043;28;20396;-53
2023/08/17 13:13:03;;;;;;;240.23;68.80;;;;;;;;;;5094119;28;20423;-54
2023/08/17 13:15:29;;;;;;;243.07;71.27;;;;;;;;;;5094015;28;20431;-55
2023/08/17 13:17:55;;;;;;;233.67;67.47;;;;;;;;;;5094278;28;20411;-56
2023/08/17 13:20:21;;;;;;;236.90;74.53;;;;;;;;;;5094041;28;20964;-56
2023/08/17 13:22:47;;;;;;;234.07;69.57;;;;;;;;;;5094111;28;20439;-56
2023/08/17 13:25:13;;;;;;;240.67;70.87;;;;;;;;;;5094101;28;20516;-55
2023/08/17 13:27:39;;;;;;;241.57;73.20;;;;;;;;;;5094062;28;20789;-56
2023/08/17 13:30:05;;;;;;;470.70;174.70;;;;;;;;;;5093528;28;20473;-56
2023/08/17 13:32:31;;;;;;;208.80;62.77;;;;;;;;;;5093837;28;20411;-56
2023/08/17 13:34:57;;;;;;;211.60;65.27;;;;;;;;;;5093965;28;20400;-55
2023/08/17 13:37:23;;;;;;;207.77;60.70;;;;;;;;;;5093849;28;20408;-54
2023/08/17 13:39:49;;;;;;;215.80;67.70;;;;;;;;;;5093490;28;20404;-56
2023/08/17 13:42:15;;;;;;;210.37;62.37;;;;;;;;;;5094320;28;20510;-53
2023/08/17 13:44:41;;;;;;;211.87;64.90;;;;;;;;;;5093296;28;20451;-53
2023/08/17 13:47:07;;;;;;;213.00;67.77;;;;;;;;;;5093636;28;20400;-54
2023/08/17 13:49:33;;;;;;;211.50;62.43;;;;;;;;;;5094417;28;20395;-51
2023/08/17 13:51:58;;;;;;;213.10;66.83;;;;;;;;;;5080955;28;20440;-51
2023/08/17 13:54:25;;;;;;;213.80;68.83;;;;;;;;;;5073131;28;20746;-51
2023/08/17 13:56:51;;;;;;;211.27;66.03;;;;;;;;;;5073040;28;20415;-53
2023/08/17 13:59:17;;;;;;;207.90;60.63;;;;;;;;;;5072899;28;20408;-51
2023/08/17 14:01:43;;;;;;;211.07;64.57;;;;;;;;;;5072982;28;20534;-53